Terminal Aerodrome Forecast
Issued by NWS

Current Version | Previous Version | Graphics & Text | Print | Product List | Glossary On
Versions: 1 2 3 4 5 6 7 8 9 10 11 12 13 14 15 16 17
882
FTUS41 KPBZ 070530
TAFHLG
TAF
KHLG 070530Z 0706/0806 28012G19KT P6SM OVC008
      TEMPO 0706/0707 OVC004
     FM071100 26007KT P6SM BKN015
     FM071400 26008KT P6SM BKN045
     FM080100 24005KT P6SM BKN100=

USA.gov is the U.S. government's official web portal to all federal, state and local government web resources and services.